Time;durP1;ratioP1;P1;durP2;ratioP2;P2;SDS_P1;SDS_P2;PMS_P1;PMS_P2;Temp;Humidity;BMP_temperature;BMP_pressure;BME280_temperature;BME280_humidity;BME280_pressure;Samples;Min_cycle;Max_cycle;Signal;HPM_P1;HPM_P2
2022/07/05 00:00:46;;;;;;;6.25;3.28;;;;;;;22.28;45.71;94081.91;5144232;27;20027;-71
2022/07/05 00:03:12;;;;;;;7.32;3.25;;;;;;;22.15;45.89;94074.06;5143992;27;20206;-71
2022/07/05 00:05:38;;;;;;;6.38;3.60;;;;;;;21.98;45.84;94078.25;5143079;27;20076;-71
2022/07/05 00:08:04;;;;;;;4.90;2.80;;;;;;;21.94;45.49;94073.94;5143903;27;20019;-71
2022/07/05 00:10:30;;;;;;;7.57;2.90;;;;;;;21.89;45.50;94083.25;5144231;27;20034;-71
2022/07/05 00:12:56;;;;;;;6.63;3.00;;;;;;;21.87;46.06;94071.22;5143944;27;20366;-72
2022/07/05 00:15:22;;;;;;;11.15;3.10;;;;;;;21.83;45.23;94063.06;5144031;27;20244;-71
2022/07/05 00:17:47;;;;;;;4.97;2.78;;;;;;;21.76;45.72;94068.44;5143843;27;20026;-71
2022/07/05 00:20:13;;;;;;;7.35;3.30;;;;;;;21.74;46.34;94062.63;5143976;28;20042;-71
2022/07/05 00:22:39;;;;;;;4.53;3.13;;;;;;;21.72;46.46;94063.00;5143871;28;20064;-71
2022/07/05 00:25:05;;;;;;;9.05;3.17;;;;;;;21.76;45.60;94066.50;5143742;28;20369;-71
2022/07/05 00:27:30;;;;;;;10.10;2.70;;;;;;;21.71;45.34;94056.00;5143827;28;20225;-71
2022/07/05 00:29:56;;;;;;;3.90;2.70;;;;;;;21.68;46.60;94067.63;5143752;28;20034;-71
2022/07/05 00:32:21;;;;;;;6.75;2.88;;;;;;;21.60;46.42;94058.66;5143961;28;20121;-71
2022/07/05 00:34:47;;;;;;;6.15;3.08;;;;;;;21.56;47.03;94063.28;5143505;28;20324;-72
2022/07/05 00:37:12;;;;;;;4.90;2.67;;;;;;;21.50;48.40;94064.03;5143815;28;20022;-71
2022/07/05 00:39:38;;;;;;;7.32;3.20;;;;;;;21.43;47.88;94065.53;5143773;28;20049;-71
2022/07/05 00:42:04;;;;;;;8.10;3.33;;;;;;;21.39;47.12;94072.03;5143524;28;20129;-71
2022/07/05 00:44:38;;;;;;;7.38;3.10;;;;;;;21.29;47.17;94059.97;5143420;28;20064;-72
2022/07/05 00:47:04;;;;;;;5.53;2.90;;;;;;;21.23;46.68;94059.53;5143775;28;20082;-73
2022/07/05 00:49:31;;;;;;;5.20;2.45;;;;;;;21.15;46.94;94057.16;5143527;28;20213;-72
2022/07/05 00:51:58;;;;;;;7.90;2.88;;;;;;;21.11;46.84;94061.78;5143573;28;20313;-71
2022/07/05 00:54:23;;;;;;;6.15;2.65;;;;;;;21.10;47.34;94055.56;5143915;28;20039;-72
2022/07/05 00:56:48;;;;;;;8.82;3.13;;;;;;;21.08;46.57;94051.66;5143302;28;20087;-71
2022/07/05 00:59:14;;;;;;;4.57;2.88;;;;;;;21.07;46.38;94047.44;5143523;28;20031;-72
2022/07/05 01:01:40;;;;;;;11.32;3.45;;;;;;;20.99;46.85;94044.63;5143343;28;20039;-72
2022/07/05 01:04:05;;;;;;;7.90;3.08;;;;;;;20.99;47.27;94049.28;5143523;28;20023;-72
2022/07/05 01:06:31;;;;;;;12.73;3.17;;;;;;;20.94;47.93;94055.03;5143442;28;20019;-71
2022/07/05 01:08:57;;;;;;;7.90;3.13;;;;;;;20.93;46.32;94061.63;5143640;28;20206;-72
2022/07/05 01:11:23;;;;;;;7.63;2.83;;;;;;;20.90;45.92;94057.72;5143460;28;20029;-72
2022/07/05 01:13:48;;;;;;;5.60;2.85;;;;;;;20.91;46.59;94069.34;5143435;28;20027;-72
2022/07/05 01:16:14;;;;;;;5.93;3.20;;;;;;;20.88;47.21;94068.13;5143379;28;20460;-72
2022/07/05 01:18:41;;;;;;;10.32;2.53;;;;;;;20.85;47.85;94071.59;5146209;27;20055;-73
2022/07/05 01:21:06;;;;;;;8.70;2.92;;;;;;;20.80;47.08;94075.44;5147237;27;20031;-72
2022/07/05 01:23:33;;;;;;;6.70;3.05;;;;;;;20.79;47.04;94075.81;5147005;27;20045;-72
2022/07/05 01:26:01;;;;;;;6.85;3.92;;;;;;;20.74;46.78;94076.94;5147166;27;20090;-71
2022/07/05 01:28:26;;;;;;;4.82;2.75;;;;;;;20.71;46.92;94076.88;5146912;27;20034;-71
2022/07/05 01:30:52;;;;;;;9.55;2.78;;;;;;;20.63;47.03;94079.50;5147100;27;20028;-72
2022/07/05 01:33:18;;;;;;;8.18;3.00;;;;;;;20.60;47.35;94080.28;5146963;27;20067;-73
2022/07/05 01:35:43;;;;;;;11.32;2.92;;;;;;;20.60;46.95;94093.81;5146857;27;20323;-71
2022/07/05 01:38:11;;;;;;;6.63;3.08;;;;;;;20.61;46.96;94089.16;5146703;27;20148;-71
2022/07/05 01:40:36;;;;;;;5.25;2.38;;;;;;;20.66;47.14;94082.63;5146963;27;20027;-71
2022/07/05 01:43:05;;;;;;;8.80;2.70;;;;;;;20.66;47.45;94088.03;5146786;27;20229;-71
2022/07/05 01:45:39;;;;;;;8.35;2.65;;;;;;;20.68;47.49;94072.19;5146367;27;20030;-71
2022/07/05 01:48:14;;;;;;;6.90;3.05;;;;;;;20.70;46.90;94069.91;5146620;27;20029;-71
2022/07/05 01:50:53;;;;;;;7.30;2.80;;;;;;;20.69;46.93;94069.13;5146698;27;20022;-71
2022/07/05 01:53:21;;;;;;;8.32;2.55;;;;;;;20.68;46.90;94073.00;5146666;27;20035;-71
2022/07/05 01:55:47;;;;;;;14.45;3.42;;;;;;;20.66;48.00;94074.50;5146317;27;20023;-72
2022/07/05 01:58:13;;;;;;;7.28;3.20;;;;;;;20.66;49.16;94063.66;5146540;27;20371;-71
2022/07/05 02:00:43;;;;;;;7.88;2.78;;;;;;;20.71;49.22;94061.41;5128088;27;20031;-71
2022/07/05 02:03:10;;;;;;;7.00;2.80;;;;;;;20.72;49.39;94067.59;5146355;27;20026;-70
2022/07/05 02:05:35;;;;;;;5.65;3.03;;;;;;;20.67;49.87;94066.03;5146276;27;20079;-71
2022/07/05 02:08:01;;;;;;;8.65;3.15;;;;;;;20.65;50.37;94068.31;5146008;27;20047;-71
2022/07/05 02:10:26;;;;;;;9.52;3.35;;;;;;;20.66;50.78;94066.38;5146171;27;20019;-71
2022/07/05 02:12:52;;;;;;;9.43;2.90;;;;;;;20.64;51.05;94064.84;5146374;27;20368;-71
2022/07/05 02:15:17;;;;;;;8.95;3.47;;;;;;;20.59;51.36;94064.38;5146006;27;20313;-71
2022/07/05 02:17:43;;;;;;;7.38;3.17;;;;;;;20.54;51.73;94070.13;5145875;27;20210;-71
2022/07/05 02:20:09;;;;;;;4.47;3.13;;;;;;;20.52;51.91;94069.72;5146078;27;20022;-71
2022/07/05 02:22:34;;;;;;;7.95;3.05;;;;;;;20.48;52.09;94066.97;5145983;27;20023;-70
2022/07/05 02:24:59;;;;;;;7.18;3.25;;;;;;;20.46;51.58;94071.19;5145759;27;20023;-70
2022/07/05 02:27:25;;;;;;;7.35;3.13;;;;;;;20.42;50.28;94071.16;5145980;27;20213;-70
2022/07/05 02:29:50;;;;;;;7.40;3.05;;;;;;;20.38;49.38;94071.09;5144947;27;20023;-70
2022/07/05 02:32:16;;;;;;;6.97;3.50;;;;;;;20.34;49.85;94072.22;5145607;27;20027;-70
2022/07/05 02:34:41;;;;;;;9.32;2.90;;;;;;;20.32;50.71;94079.94;5145679;27;20026;-70
2022/07/05 02:37:07;;;;;;;6.70;3.53;;;;;;;20.26;50.59;94084.13;5145596;27;20049;-70
2022/07/05 02:39:32;;;;;;;4.88;3.25;;;;;;;20.22;50.06;94090.25;5145437;27;20030;-70
2022/07/05 02:41:57;;;;;;;5.35;3.67;;;;;;;20.14;50.06;94088.59;5145490;27;20071;-70
2022/07/05 02:44:23;;;;;;;11.05;3.30;;;;;;;20.03;50.36;94079.59;5145528;27;20186;-70
2022/07/05 02:46:48;;;;;;;4.32;2.83;;;;;;;19.95;50.26;94091.47;5145228;27;20037;-70
2022/07/05 02:49:15;;;;;;;8.00;3.72;;;;;;;19.92;50.82;94098.38;5145394;27;20067;-70
2022/07/05 02:51:40;;;;;;;6.72;2.78;;;;;;;19.89;50.40;94092.94;5145371;27;20051;-70
2022/07/05 02:54:05;;;;;;;8.15;3.20;;;;;;;19.87;50.76;94089.81;5145335;27;20278;-70
2022/07/05 02:56:31;;;;;;;7.65;3.25;;;;;;;19.90;50.68;94089.06;5145134;27;20050;-71
2022/07/05 02:58:56;;;;;;;9.40;3.30;;;;;;;19.93;51.74;94096.47;5145437;27;20030;-71
2022/07/05 03:01:22;;;;;;;6.78;3.45;;;;;;;19.96;52.93;94088.38;5145144;27;20094;-71
2022/07/05 03:03:47;;;;;;;6.78;3.38;;;;;;;19.96;52.85;94088.38;5145126;27;20030;-71
2022/07/05 03:06:13;;;;;;;7.97;3.22;;;;;;;19.97;52.63;94089.97;5145008;27;20063;-71
2022/07/05 03:08:38;;;;;;;7.63;3.80;;;;;;;20.00;53.10;94100.03;5144930;27;20276;-71
2022/07/05 03:11:03;;;;;;;5.30;3.15;;;;;;;20.02;52.48;94089.63;5144903;27;20049;-71
2022/07/05 03:13:29;;;;;;;6.88;3.55;;;;;;;20.05;53.62;94098.94;5144883;27;20023;-71
2022/07/05 03:15:55;;;;;;;9.77;3.50;;;;;;;20.09;54.39;94101.69;5145057;27;20018;-71
2022/07/05 03:18:20;;;;;;;5.53;3.17;;;;;;;20.11;54.70;94093.97;5144937;27;20217;-71
2022/07/05 03:20:45;;;;;;;5.65;3.40;;;;;;;20.13;55.06;94097.88;5144679;27;20015;-71
2022/07/05 03:23:11;;;;;;;15.05;3.97;;;;;;;20.11;54.65;94093.97;5144702;27;20030;-71
2022/07/05 03:25:37;;;;;;;7.63;3.88;;;;;;;20.12;55.29;94100.97;5144639;27;20078;-71
2022/07/05 03:28:02;;;;;;;11.50;4.25;;;;;;;20.12;55.37;94101.72;5144634;27;20019;-71
2022/07/05 03:30:27;;;;;;;10.25;4.03;;;;;;;20.14;55.63;94093.25;5144757;27;20023;-71
2022/07/05 03:32:53;;;;;;;8.38;4.10;;;;;;;20.15;56.18;94089.38;5144691;27;20022;-71
2022/07/05 03:35:18;;;;;;;8.07;3.97;;;;;;;20.17;56.25;94098.72;5144632;27;20225;-71
2022/07/05 03:37:44;;;;;;;8.10;3.78;;;;;;;20.16;56.99;94096.38;5144412;27;20015;-71
2022/07/05 03:40:10;;;;;;;9.00;4.10;;;;;;;20.17;57.38;94097.91;5144316;27;20022;-71
2022/07/05 03:42:35;;;;;;;12.82;4.20;;;;;;;20.15;57.26;94095.59;5144294;27;20329;-71
2022/07/05 03:45:02;;;;;;;8.15;3.78;;;;;;;20.16;56.32;94090.94;5144372;27;20376;-71
2022/07/05 03:47:27;;;;;;;6.47;3.70;;;;;;;20.18;56.55;94088.66;5144324;27;20015;-71
2022/07/05 03:49:54;;;;;;;6.85;3.17;;;;;;;20.24;53.46;94077.13;5144404;27;20026;-71
2022/07/05 03:52:20;;;;;;;5.53;3.38;;;;;;;20.27;52.31;94083.72;5144123;27;20026;-71
2022/07/05 03:54:45;;;;;;;8.85;3.42;;;;;;;20.32;53.40;94079.94;5144053;27;20316;-71
2022/07/05 03:57:12;;;;;;;5.05;3.53;;;;;;;20.36;53.71;94078.81;5144337;27;20305;-71
2022/07/05 03:59:38;;;;;;;5.15;3.15;;;;;;;20.39;52.49;94072.69;5144293;27;20217;-71
2022/07/05 04:02:04;;;;;;;6.68;3.33;;;;;;;20.49;52.72;94075.84;5144110;27;20023;-71
2022/07/05 04:04:30;;;;;;;8.57;3.13;;;;;;;20.54;51.26;94078.25;5143891;27;20018;-71
2022/07/05 04:06:55;;;;;;;6.97;2.85;;;;;;;20.58;51.88;94077.16;5144284;27;20217;-71
2022/07/05 04:09:20;;;;;;;8.73;3.17;;;;;;;20.62;52.93;94088.81;5143872;27;20056;-71
2022/07/05 04:11:46;;;;;;;4.97;2.88;;;;;;;20.61;52.99;94081.81;5144001;27;20026;-71
2022/07/05 04:14:11;;;;;;;7.70;3.47;;;;;;;20.54;52.68;94084.44;5143661;27;20217;-72
2022/07/05 04:16:37;;;;;;;11.07;3.53;;;;;;;20.44;51.32;94083.16;5143713;27;20015;-72
2022/07/05 04:19:03;;;;;;;13.65;3.45;;;;;;;20.42;51.94;94079.28;5143853;27;20019;-71
2022/07/05 04:21:28;;;;;;;5.05;3.20;;;;;;;20.36;52.43;94081.53;5144065;28;20022;-72
2022/07/05 04:23:53;;;;;;;9.15;3.85;;;;;;;20.38;53.03;94086.56;5143674;28;20055;-71
2022/07/05 04:26:19;;;;;;;7.97;3.20;;;;;;;20.38;52.99;94078.47;5143694;28;20098;-71
2022/07/05 04:28:45;;;;;;;7.03;3.20;;;;;;;20.40;53.13;94081.56;5143844;28;20019;-71
2022/07/05 04:31:10;;;;;;;10.70;4.38;;;;;;;20.43;53.23;94078.13;5143654;28;20313;-71
2022/07/05 04:33:35;;;;;;;18.42;4.32;;;;;;;20.48;53.12;94083.22;5143961;28;20034;-71
2022/07/05 04:36:01;;;;;;;18.65;4.40;;;;;;;20.54;52.80;94080.97;5143510;28;20248;-71
2022/07/05 04:38:26;;;;;;;15.18;4.82;;;;;;;20.56;53.06;94087.56;5143843;28;20030;-71
2022/07/05 04:40:52;;;;;;;12.45;4.63;;;;;;;20.55;52.67;94085.97;5143490;28;20042;-71
2022/07/05 04:43:18;;;;;;;18.52;4.97;;;;;;;20.56;51.91;94086.78;5143541;28;20266;-71
2022/07/05 04:45:43;;;;;;;13.73;4.00;;;;;;;20.45;52.54;94086.63;5143585;28;20027;-71
2022/07/05 04:48:09;;;;;;;16.65;4.18;;;;;;;20.47;51.99;94087.06;5143443;28;20059;-71
2022/07/05 04:50:35;;;;;;;13.57;3.95;;;;;;;20.61;51.73;94086.47;5143617;28;20019;-71
2022/07/05 04:53:00;;;;;;;11.73;3.92;;;;;;;20.63;50.52;94084.16;5145624;27;20038;-71
2022/07/05 04:55:26;;;;;;;10.85;4.22;;;;;;;20.63;49.79;94086.88;5147690;27;20015;-71
2022/07/05 04:57:51;;;;;;;13.93;4.18;;;;;;;20.73;50.39;94090.84;5147439;27;20035;-71
2022/07/05 05:00:16;;;;;;;14.98;4.43;;;;;;;20.82;50.24;94089.41;5147747;27;20060;-71
2022/07/05 05:02:42;;;;;;;23.15;4.72;;;;;;;20.92;49.67;94098.75;5147712;27;20057;-71
2022/07/05 05:05:08;;;;;;;12.15;4.13;;;;;;;20.96;50.40;94094.16;5147389;27;20045;-71
2022/07/05 05:07:34;;;;;;;14.55;5.03;;;;;;;21.03;50.31;94096.16;5147241;27;20327;-71
2022/07/05 05:10:00;;;;;;;26.58;4.47;;;;;;;21.08;49.71;94100.44;5147415;27;20022;-71
2022/07/05 05:12:26;;;;;;;9.90;4.75;;;;;;;21.10;49.68;94100.84;5146800;27;20019;-64
2022/07/05 05:14:51;;;;;;;8.32;4.07;;;;;;;21.11;49.75;94097.00;5146814;27;20015;-64
2022/07/05 05:17:17;;;;;;;9.05;5.07;;;;;;;21.17;51.36;94093.56;5146688;27;20019;-63
2022/07/05 05:19:44;;;;;;;8.23;4.22;;;;;;;21.17;49.59;94103.66;5146751;27;20011;-63
2022/07/05 05:22:09;;;;;;;12.30;4.53;;;;;;;21.27;49.86;94107.56;5146596;27;20019;-63
2022/07/05 05:24:35;;;;;;;11.98;4.15;;;;;;;21.31;49.76;94098.34;5146711;27;20059;-64
2022/07/05 05:27:01;;;;;;;17.50;4.22;;;;;;;21.36;49.47;94100.69;5146721;27;20317;-64
2022/07/05 05:29:27;;;;;;;14.98;3.92;;;;;;;21.39;49.67;94094.53;5146813;27;20228;-64
2022/07/05 05:31:52;;;;;;;11.68;4.05;;;;;;;21.35;49.33;94093.72;5146528;27;20087;-63
2022/07/05 05:34:18;;;;;;;12.32;5.20;;;;;;;21.40;49.23;94085.22;5146507;27;20243;-64
2022/07/05 05:36:43;;;;;;;9.30;4.22;;;;;;;21.50;49.43;94091.91;5146244;27;20015;-63
2022/07/05 05:39:08;;;;;;;8.32;3.90;;;;;;;21.59;48.59;94097.00;5146132;27;20015;-64
2022/07/05 05:41:35;;;;;;;8.15;3.80;;;;;;;21.60;46.99;94093.16;5146188;27;20313;-64
2022/07/05 05:44:00;;;;;;;14.00;3.92;;;;;;;21.69;46.98;94093.56;5146343;27;20038;-64
2022/07/05 05:46:26;;;;;;;15.88;4.38;;;;;;;21.76;47.04;94096.34;5145970;27;20035;-64
2022/07/05 05:48:51;;;;;;;19.05;4.40;;;;;;;21.79;47.35;94092.09;5146077;27;20023;-64
2022/07/05 05:51:17;;;;;;;8.32;4.20;;;;;;;21.82;49.03;94097.56;5146096;27;20098;-71
2022/07/05 05:53:45;;;;;;;11.18;4.25;;;;;;;21.86;48.18;94100.28;5146353;27;20060;-71
2022/07/05 05:56:10;;;;;;;13.85;4.43;;;;;;;21.87;46.10;94099.13;5146532;27;20026;-71
2022/07/05 05:58:35;;;;;;;17.35;4.05;;;;;;;21.92;46.82;94098.78;5146275;27;20268;-71
2022/07/05 06:01:01;;;;;;;14.00;4.95;;;;;;;22.02;47.38;94097.25;5146450;27;20335;-71
2022/07/05 06:03:27;;;;;;;12.73;4.18;;;;;;;22.07;46.67;94101.56;5146202;27;20308;-70
2022/07/05 06:05:53;;;;;;;16.23;4.38;;;;;;;22.07;47.03;94099.63;5146065;27;20019;-70
2022/07/05 06:08:19;;;;;;;14.25;4.00;;;;;;;22.16;47.80;94097.31;5146154;27;20034;-70
2022/07/05 06:10:45;;;;;;;12.00;4.15;;;;;;;22.22;47.23;94095.78;5145975;27;20022;-70
2022/07/05 06:13:13;;;;;;;14.43;4.15;;;;;;;22.33;46.84;94108.69;5145825;27;20048;-70
2022/07/05 06:15:39;;;;;;;16.13;4.32;;;;;;;22.43;45.11;94106.00;5145840;27;20023;-70
2022/07/05 06:18:06;;;;;;;16.70;4.15;;;;;;;22.47;45.83;94102.50;5146135;27;20026;-70
2022/07/05 06:20:33;;;;;;;12.15;3.97;;;;;;;22.45;45.25;94113.78;5145961;27;20030;-70
2022/07/05 06:23:00;;;;;;;13.05;4.28;;;;;;;22.46;45.44;94120.75;5145826;27;20202;-70
2022/07/05 06:25:26;;;;;;;15.43;4.18;;;;;;;22.47;45.51;94118.81;5145770;27;20027;-71
2022/07/05 06:27:59;;;;;;;16.85;4.20;;;;;;;22.50;45.40;94118.84;5145722;27;20456;-71
2022/07/05 06:30:27;;;;;;;10.57;3.92;;;;;;;22.58;46.02;94122.34;5145585;27;20247;-71
2022/07/05 06:32:53;;;;;;;14.20;4.03;;;;;;;22.67;45.92;94117.31;5145601;27;20019;-71
2022/07/05 06:35:19;;;;;;;14.00;3.97;;;;;;;22.75;44.49;94112.69;5145606;27;20042;-71
2022/07/05 06:37:51;;;;;;;14.27;3.92;;;;;;;22.74;44.35;94116.59;5145511;27;20201;-70
2022/07/05 06:40:19;;;;;;;8.20;4.18;;;;;;;22.80;44.04;94109.63;5145625;27;20022;-71
2022/07/05 06:42:45;;;;;;;16.85;5.07;;;;;;;22.91;44.81;94106.91;5145313;27;20043;-71
2022/07/05 06:45:11;;;;;;;34.40;5.50;;;;;;;22.99;44.35;94111.97;5145249;27;20082;-71
2022/07/05 06:47:36;;;;;;;14.40;4.50;;;;;;;23.03;44.05;94107.34;5145162;27;20019;-71
2022/07/05 06:50:03;;;;;;;12.57;4.43;;;;;;;23.05;44.08;94101.53;5145571;27;20198;-71
2022/07/05 06:52:29;;;;;;;11.23;3.63;;;;;;;23.13;43.99;94107.75;5145229;27;20094;-71
2022/07/05 06:54:55;;;;;;;12.02;4.38;;;;;;;23.25;44.21;94096.50;5144950;27;20018;-70
2022/07/05 06:57:21;;;;;;;8.88;3.88;;;;;;;23.31;44.21;94096.91;5145243;27;20091;-70
2022/07/05 06:59:47;;;;;;;18.63;4.00;;;;;;;23.41;44.31;94091.44;5145013;27;20011;-81
2022/07/05 07:02:13;;;;;;;13.30;4.45;;;;;;;23.56;44.31;94094.16;5144902;27;20025;-80
2022/07/05 07:04:38;;;;;;;10.43;3.72;;;;;;;23.72;44.00;94091.78;5144768;27;20245;-80
2022/07/05 07:09:17;;;;;;;12.68;4.45;;;;;;;23.78;43.47;94089.50;5144958;27;20122;-81
2022/07/05 07:09:49;;;;;;;8.23;4.30;;;;;;;23.82;43.18;94082.88;5144760;27;20259;-83
2022/07/05 07:12:15;;;;;;;16.65;4.75;;;;;;;23.84;43.19;94087.94;5144960;27;20019;-82
2022/07/05 07:14:40;;;;;;;13.05;4.30;;;;;;;23.83;43.12;94089.88;5144536;27;20026;-82
2022/07/05 07:17:06;;;;;;;13.45;4.10;;;;;;;23.81;43.36;94085.97;5144580;27;20026;-81
2022/07/05 07:19:31;;;;;;;13.90;3.83;;;;;;;23.86;43.49;94098.44;5145245;27;20098;-80
2022/07/05 07:21:57;;;;;;;12.48;4.10;;;;;;;23.81;43.53;94097.66;5144760;27;20078;-77
2022/07/05 07:24:22;;;;;;;15.00;4.85;;;;;;;23.88;43.89;94096.09;5144771;27;20033;-83
2022/07/05 07:27:03;;;;;;;15.43;4.38;;;;;;;23.91;43.90;94109.66;5144609;27;20090;-83
2022/07/05 07:29:35;;;;;;;26.10;4.10;;;;;;;23.93;43.65;94103.84;5144564;27;20071;-83
2022/07/05 07:32:01;;;;;;;16.23;4.13;;;;;;;24.00;44.02;94112.00;5144377;27;20374;-79
2022/07/05 07:34:27;;;;;;;6.72;4.18;;;;;;;24.09;42.99;94100.69;5144685;27;20543;-80
2022/07/05 07:36:54;;;;;;;8.68;3.95;;;;;;;24.15;43.31;94099.88;5144341;27;20336;-82
2022/07/05 07:39:20;;;;;;;13.48;4.18;;;;;;;24.18;43.29;94099.13;5144204;27;20025;-78
2022/07/05 07:41:46;;;;;;;14.35;4.82;;;;;;;24.17;43.13;94091.34;5143934;27;20240;-78
2022/07/05 07:44:11;;;;;;;15.07;4.53;;;;;;;24.19;43.72;94087.03;5144292;27;20116;-77
2022/07/05 07:46:39;;;;;;;8.68;3.92;;;;;;;24.33;42.61;94093.63;5144256;27;20194;-77
2022/07/05 07:49:05;;;;;;;8.13;4.15;;;;;;;24.41;42.33;94090.47;5144370;27;20046;-77
2022/07/05 07:51:31;;;;;;;22.80;5.25;;;;;;;24.34;42.44;94095.16;5144217;27;20019;-77
2022/07/05 07:53:57;;;;;;;15.65;4.35;;;;;;;24.36;42.57;94093.59;5144164;27;20023;-79
2022/07/05 07:56:22;;;;;;;11.15;4.28;;;;;;;24.48;42.79;94094.31;5143887;27;20034;-80
2022/07/05 07:58:53;;;;;;;10.35;4.25;;;;;;;24.56;42.80;94087.69;5143875;27;20023;-74
2022/07/05 08:01:19;;;;;;;18.10;4.50;;;;;;;24.65;43.78;94093.50;5143998;27;20068;-94
2022/07/05 08:03:45;;;;;;;11.60;5.00;;;;;;;24.82;43.53;94089.13;5143652;27;20362;-86
2022/07/05 08:06:12;;;;;;;11.30;4.90;;;;;;;24.93;42.14;94097.22;5143136;27;20019;-80
2022/07/05 08:08:38;;;;;;;12.43;4.70;;;;;;;24.86;42.77;94091.84;5144143;27;20094;-75
2022/07/05 08:11:05;;;;;;;12.40;4.47;;;;;;;24.99;41.79;94101.88;5143736;27;20034;-80
2022/07/05 08:13:31;;;;;;;13.00;4.13;;;;;;;25.06;40.99;94095.59;5125496;27;20118;-77
2022/07/05 08:15:57;;;;;;;13.75;4.15;;;;;;;25.13;41.38;94094.75;5143711;27;20019;-79
2022/07/05 08:23:50;;;;;;;14.70;3.83;;;;;;;25.48;43.29;94093.72;5143902;28;20355;-82
2022/07/05 08:26:16;;;;;;;16.00;4.40;;;;;;;25.55;41.94;94090.19;5143694;27;20024;-82
2022/07/05 08:28:41;;;;;;;9.73;4.32;;;;;;;25.58;41.26;94087.41;5128707;27;20097;-80
2022/07/05 08:31:07;;;;;;;30.80;5.93;;;;;;;25.69;40.92;94090.06;5148259;27;20038;-82
2022/07/05 08:33:32;;;;;;;12.02;4.90;;;;;;;25.72;41.47;94086.50;5147867;27;20023;-81
2022/07/05 08:35:58;;;;;;;11.95;3.90;;;;;;;25.87;42.22;94086.38;5147996;27;20064;-82
2022/07/05 08:38:23;;;;;;;11.38;4.35;;;;;;;25.97;41.05;94077.31;5147526;27;20019;-78
2022/07/05 08:40:54;;;;;;;9.63;4.75;;;;;;;26.12;41.42;94081.44;5147858;27;20220;-79
2022/07/05 08:43:22;;;;;;;13.47;4.50;;;;;;;26.31;41.35;94071.09;5129389;27;20047;-76
2022/07/05 08:45:49;;;;;;;14.75;4.88;;;;;;;26.48;41.02;94075.56;5147498;27;20068;-78
2022/07/05 08:48:16;;;;;;;18.95;4.78;;;;;;;26.70;39.99;94080.78;5147581;27;20225;-76
2022/07/05 08:50:43;;;;;;;17.83;5.07;;;;;;;26.84;39.36;94077.09;5147887;27;20019;-78
2022/07/05 08:53:09;;;;;;;10.38;4.43;;;;;;;26.98;39.77;94072.16;5147914;27;20317;-77
2022/07/05 08:55:35;;;;;;;18.30;4.40;;;;;;;27.14;38.73;94070.78;5147901;27;20084;-80
2022/07/05 08:58:01;;;;;;;12.27;4.05;;;;;;;27.21;37.86;94071.47;5147554;27;20019;-75
2022/07/05 09:00:27;;;;;;;21.80;4.55;;;;;;;27.19;37.45;94070.31;5147520;27;20063;-85
2022/07/05 09:02:53;;;;;;;10.23;4.40;;;;;;;27.26;38.03;94066.72;5147333;27;20022;-80
2022/07/05 09:05:20;;;;;;;14.98;4.25;;;;;;;27.37;38.18;94059.88;5147385;27;20027;-79
2022/07/05 09:07:58;;;;;;;30.65;4.65;;;;;;;27.52;37.75;94056.91;5147189;27;20027;-85
2022/07/05 09:10:29;;;;;;;11.48;4.53;;;;;;;27.67;37.90;94052.72;5147245;27;20027;-84
2022/07/05 09:12:56;;;;;;;17.63;5.13;;;;;;;27.80;37.83;94044.69;5147191;27;20030;-78
2022/07/05 09:15:23;;;;;;;15.23;4.90;;;;;;;27.95;36.65;94048.72;5147115;27;20253;-77
2022/07/05 09:17:48;;;;;;;11.73;4.97;;;;;;;28.05;37.26;94047.00;5147402;27;20304;-79
2022/07/05 09:20:16;;;;;;;13.80;5.78;;;;;;;28.16;39.01;94033.84;5147053;27;20015;-78
2022/07/05 09:22:52;;;;;;;7.28;4.00;;;;;;;28.17;37.20;94038.16;5147283;27;20034;-77
2022/07/05 09:25:24;;;;;;;9.80;5.03;;;;;;;28.29;35.98;94035.94;5147086;27;20022;-78
2022/07/05 09:27:57;;;;;;;10.10;4.43;;;;;;;28.34;36.18;94032.72;5146875;27;20041;-78
2022/07/05 09:30:31;;;;;;;17.67;4.20;;;;;;;28.42;35.91;94028.63;5146903;27;20047;-77
2022/07/05 09:33:02;;;;;;;8.60;4.25;;;;;;;28.53;34.59;94033.91;5146825;27;20182;-78
2022/07/05 09:35:28;;;;;;;19.63;5.20;;;;;;;28.57;34.80;94018.94;5128647;27;20023;-76
2022/07/05 09:37:54;;;;;;;7.85;4.38;;;;;;;28.65;36.06;94022.28;5146505;27;20237;-79
2022/07/05 09:40:19;;;;;;;8.07;3.83;;;;;;;28.70;37.05;94023.75;5146593;27;20026;-78
2022/07/05 09:42:44;;;;;;;8.70;4.35;;;;;;;28.85;37.33;94027.72;5146830;27;20225;-75
2022/07/05 09:45:10;;;;;;;11.90;3.72;;;;;;;28.92;34.89;94015.81;5146841;27;20221;-77
2022/07/05 09:47:35;;;;;;;11.02;4.25;;;;;;;28.93;35.35;94015.38;5145894;27;20019;-78
2022/07/05 09:50:04;;;;;;;11.82;4.50;;;;;;;29.10;33.77;94010.69;5145850;27;20329;-75
2022/07/05 09:52:38;;;;;;;8.15;4.20;;;;;;;29.20;34.27;94017.13;5145429;27;20019;-74
2022/07/05 09:55:07;;;;;;;15.93;4.60;;;;;;;29.27;34.03;94003.25;5146489;27;20026;-73
2022/07/05 09:57:36;;;;;;;11.18;5.05;;;;;;;29.46;36.84;94009.06;5146508;27;20332;-76
2022/07/05 10:00:24;;;;;;;7.30;4.13;;;;;;;29.64;34.92;94012.13;5146351;27;20027;-75
2022/07/05 10:02:53;;;;;;;9.05;4.30;;;;;;;29.76;34.34;94011.44;5119952;27;20031;-74
2022/07/05 10:05:23;;;;;;;8.02;4.30;;;;;;;29.82;34.44;93997.16;5145870;27;20050;-74
2022/07/05 10:07:51;;;;;;;8.25;4.07;;;;;;;29.89;35.29;94002.47;5146297;27;20047;-73
2022/07/05 10:10:18;;;;;;;11.73;3.92;;;;;;;30.06;34.88;93995.69;5146072;27;20027;-74
2022/07/05 10:12:45;;;;;;;8.63;4.40;;;;;;;30.12;33.90;93995.94;5145874;27;20086;-74
2022/07/05 10:15:13;;;;;;;8.73;4.43;;;;;;;30.20;33.86;94000.81;5145814;27;20239;-73
2022/07/05 10:17:45;;;;;;;8.13;3.95;;;;;;;30.26;33.85;93994.78;5146046;27;20217;-75
2022/07/05 10:20:23;;;;;;;9.95;4.85;;;;;;;30.33;34.23;93983.63;5145798;27;20044;-78
2022/07/05 10:22:50;;;;;;;9.90;4.15;;;;;;;30.30;34.56;93982.50;5145963;27;20015;-78
2022/07/05 10:25:15;;;;;;;14.05;4.10;;;;;;;30.32;34.39;93987.56;5145592;27;20038;-79
2022/07/05 10:27:42;;;;;;;8.55;4.75;;;;;;;30.45;34.80;93974.59;5145946;27;20027;-79
2022/07/05 10:30:09;;;;;;;8.68;4.35;;;;;;;30.52;35.14;93977.13;5145733;27;20221;-76
2022/07/05 10:32:37;;;;;;;7.57;4.80;;;;;;;30.62;35.75;93980.78;5145481;27;20023;-78
2022/07/05 10:35:03;;;;;;;12.10;4.32;;;;;;;30.71;35.69;93974.59;5145762;27;20023;-76
2022/07/05 10:37:32;;;;;;;11.32;4.32;;;;;;;30.83;35.31;93968.31;5145461;27;20059;-76
2022/07/05 10:40:00;;;;;;;6.00;4.28;;;;;;;30.90;35.04;93968.16;5145312;27;20034;-76
2022/07/05 10:42:29;;;;;;;8.15;3.55;;;;;;;30.85;33.98;93965.91;5145376;27;20046;-75
2022/07/05 10:44:56;;;;;;;6.18;3.90;;;;;;;30.87;35.45;93959.97;5145240;27;20309;-76
2022/07/05 10:47:21;;;;;;;7.95;4.28;;;;;;;30.92;34.40;93957.47;5145260;27;20094;-76
2022/07/05 10:50:01;;;;;;;16.98;4.75;;;;;;;31.04;34.91;93960.63;5144531;27;20031;-76
2022/07/05 10:52:26;;;;;;;8.15;3.92;;;;;;;31.12;33.94;93961.94;5145310;27;20031;-78
2022/07/05 10:55:16;;;;;;;10.70;4.20;;;;;;;31.22;33.28;93960.03;5145404;27;20320;-76
2022/07/05 10:57:42;;;;;;;10.65;4.70;;;;;;;31.26;33.00;93961.47;5144979;27;20077;-76
2022/07/05 11:00:09;;;;;;;12.77;4.57;;;;;;;31.36;33.69;93952.06;5145381;27;20039;-75
2022/07/05 11:02:35;;;;;;;8.05;4.15;;;;;;;31.37;33.37;93953.63;5126804;27;20031;-76
2022/07/05 11:05:02;;;;;;;14.88;4.32;;;;;;;31.46;33.18;93947.44;5126382;27;20031;-76
2022/07/05 11:07:59;;;;;;;12.55;4.38;;;;;;;31.56;32.36;93951.06;5145057;27;20032;-79
2022/07/05 11:10:25;;;;;;;13.75;4.07;;;;;;;31.61;31.13;93936.72;5144980;27;20034;-79
2022/07/05 11:12:50;;;;;;;14.45;4.03;;;;;;;31.61;32.72;93942.22;5144843;27;20027;-77
2022/07/05 11:15:16;;;;;;;10.82;4.40;;;;;;;31.71;33.40;93941.09;5145133;27;20019;-80
2022/07/05 11:17:42;;;;;;;11.98;4.18;;;;;;;31.77;31.93;93944.81;5126518;27;20023;-78
2022/07/05 11:20:37;;;;;;;10.55;3.88;;;;;;;31.87;32.08;93953.13;5145067;27;20220;-80
2022/07/05 11:23:08;;;;;;;7.03;3.88;;;;;;;31.98;31.70;93931.47;5131253;27;20062;-79
2022/07/05 11:25:38;;;;;;;9.15;3.85;;;;;;;32.01;30.29;93938.09;5144728;27;20050;-79
2022/07/05 11:28:12;;;;;;;13.50;4.97;;;;;;;32.13;31.03;93945.53;5144524;27;20022;-82
2022/07/05 11:30:47;;;;;;;14.43;4.90;;;;;;;32.13;31.34;93938.00;5145101;27;20019;-89
2022/07/05 11:33:28;;;;;;;11.95;4.10;;;;;;;32.21;30.66;93932.25;5144486;27;20022;-82